createdAt,value
2022-10-29T00:00:53.820Z,10.40
2022-10-29T00:03:22.817Z,10.30
2022-10-29T00:06:01.923Z,11.00
2022-10-29T00:08:31.690Z,10.20
2022-10-29T00:11:07.684Z,10.10
2022-10-29T00:13:37.957Z,10.00
2022-10-29T00:16:07.976Z,11.20
2022-10-29T00:18:35.981Z,10.00
2022-10-29T00:21:05.553Z,9.90
2022-10-29T00:23:33.752Z,10.00
2022-10-29T00:26:02.981Z,9.90
2022-10-29T00:28:31.435Z,10.00
2022-10-29T00:31:03.605Z,10.00
2022-10-29T00:33:31.725Z,10.00
2022-10-29T00:36:01.123Z,10.00
2022-10-29T00:38:29.281Z,10.70
2022-10-29T00:40:57.258Z,10.00
2022-10-29T00:43:26.677Z,10.00
2022-10-29T00:45:57.815Z,10.00
2022-10-29T00:48:30.544Z,9.90
2022-10-29T00:50:59.801Z,9.90
2022-10-29T00:53:31.659Z,9.80
2022-10-29T00:56:00.500Z,9.80
2022-10-29T00:58:29.559Z,9.90
2022-10-29T01:00:57.748Z,9.80
2022-10-29T01:03:27.446Z,10.80
2022-10-29T01:05:55.915Z,9.70
2022-10-29T01:08:24.318Z,9.70
2022-10-29T01:11:01.541Z,9.70
2022-10-29T01:13:41.963Z,9.70
2022-10-29T01:16:17.606Z,9.60
2022-10-29T01:18:54.391Z,9.60
2022-10-29T01:21:44.281Z,9.60
2022-10-29T01:24:54.538Z,9.50
2022-10-29T01:27:52.413Z,9.50
2022-10-29T01:30:28.522Z,9.40
2022-10-29T01:33:09.478Z,9.40
2022-10-29T01:35:48.676Z,9.40
2022-10-29T01:38:31.072Z,9.30
2022-10-29T01:41:03.463Z,9.20
2022-10-29T01:43:38.898Z,9.10
2022-10-29T01:46:13.542Z,9.10
2022-10-29T01:48:46.408Z,9.10
2022-10-29T01:51:21.268Z,9.10
2022-10-29T01:53:50.778Z,10.40
2022-10-29T01:56:18.740Z,9.10
2022-10-29T01:58:54.554Z,9.10
2022-10-29T02:01:37.269Z,9.10
2022-10-29T02:04:21.040Z,9.00
2022-10-29T02:07:00.535Z,9.80
2022-10-29T02:09:35.136Z,9.00
2022-10-29T02:12:09.520Z,9.00
2022-10-29T02:14:41.515Z,9.00
2022-10-29T02:17:09.736Z,9.00
2022-10-29T02:19:39.148Z,9.90
2022-10-29T02:22:07.194Z,9.10
2022-10-29T02:24:35.263Z,9.30
2022-10-29T02:27:03.447Z,9.10
2022-10-29T02:29:31.385Z,9.10
2022-10-29T02:31:59.381Z,9.20
2022-10-29T02:34:27.473Z,9.70
2022-10-29T02:36:56.992Z,9.10
2022-10-29T02:39:25.132Z,10.20
2022-10-29T02:41:53.054Z,9.10
2022-10-29T02:44:21.037Z,9.10
2022-10-29T02:46:49.084Z,9.10
2022-10-29T02:49:17.069Z,9.20
2022-10-29T02:51:45.201Z,9.00
2022-10-29T02:54:14.842Z,9.00
2022-10-29T02:56:43.240Z,10.20
2022-10-29T02:59:12.016Z,10.20
2022-10-29T03:01:40.462Z,9.10
2022-10-29T03:04:08.563Z,10.20
2022-10-29T03:06:36.646Z,9.10
2022-10-29T03:09:04.745Z,9.50
2022-10-29T03:11:34.268Z,9.00
2022-10-29T03:14:02.401Z,9.10
2022-10-29T03:16:30.468Z,8.90
2022-10-29T03:18:58.606Z,8.90
2022-10-29T03:21:26.531Z,8.80
2022-10-29T03:23:54.622Z,8.80
2022-10-29T03:26:22.591Z,8.80
2022-10-29T03:28:51.939Z,9.30
2022-10-29T03:31:20.105Z,8.60
2022-10-29T03:33:48.308Z,9.20
2022-10-29T03:36:16.415Z,8.60
2022-10-29T03:38:44.464Z,8.60
2022-10-29T03:41:12.525Z,8.60
2022-10-29T03:43:41.071Z,8.50
2022-10-29T03:46:10.778Z,8.60
2022-10-29T03:48:39.174Z,8.60
2022-10-29T03:51:07.781Z,8.60
2022-10-29T03:53:37.253Z,8.60
2022-10-29T03:56:06.626Z,8.70
2022-10-29T03:58:34.639Z,8.60
2022-10-29T04:01:04.589Z,8.70
2022-10-29T04:03:36.441Z,8.70
2022-10-29T04:06:11.878Z,8.70
2022-10-29T04:08:40.133Z,8.70
2022-10-29T04:11:10.075Z,8.70
2022-10-29T04:13:58.132Z,8.80
2022-10-29T04:16:46.092Z,8.90
2022-10-29T04:19:35.550Z,8.80
2022-10-29T04:28:43.553Z,9.10
2022-10-29T04:31:13.065Z,8.70
2022-10-29T04:33:41.204Z,8.90
2022-10-29T04:36:10.994Z,8.90
2022-10-29T04:38:39.129Z,8.60
2022-10-29T04:41:07.571Z,9.10
2022-10-29T04:43:35.690Z,8.60
2022-10-29T04:46:03.827Z,8.60
2022-10-29T04:48:34.361Z,8.60
2022-10-29T04:51:02.758Z,8.60
2022-10-29T04:53:32.298Z,8.60
2022-10-29T04:56:01.854Z,8.60
2022-10-29T04:58:29.948Z,8.60
2022-10-29T05:01:02.846Z,8.60
2022-10-29T05:03:30.927Z,8.60
2022-10-29T05:05:58.988Z,8.70
2022-10-29T05:08:27.008Z,8.60
2022-10-29T05:10:56.412Z,8.60
2022-10-29T05:13:24.376Z,8.70
2022-10-29T05:15:53.428Z,8.70
2022-10-29T05:18:21.741Z,8.60
2022-10-29T05:20:49.966Z,8.60
2022-10-29T05:23:18.065Z,8.70
2022-10-29T05:25:49.058Z,8.50
2022-10-29T05:28:20.251Z,8.50
2022-10-29T05:30:49.388Z,8.50
2022-10-29T05:33:19.289Z,8.40
2022-10-29T05:35:47.710Z,8.40
2022-10-29T05:38:16.910Z,8.30
2022-10-29T05:40:45.649Z,8.30
2022-10-29T05:43:14.671Z,8.40
2022-10-29T05:45:44.239Z,8.50
2022-10-29T05:48:15.028Z,8.30
2022-10-29T05:50:43.183Z,8.50
2022-10-29T05:53:13.538Z,8.40
2022-10-29T05:55:42.718Z,8.40
2022-10-29T05:58:13.105Z,8.40
2022-10-29T06:00:44.945Z,9.10
2022-10-29T06:03:15.263Z,8.50
2022-10-29T06:05:43.586Z,8.60
2022-10-29T06:08:11.533Z,8.50
2022-10-29T06:10:39.514Z,8.60
2022-10-29T06:13:12.015Z,8.60
2022-10-29T06:15:40.111Z,8.60
2022-10-29T06:18:09.535Z,8.70
2022-10-29T06:20:38.657Z,8.80
2022-10-29T06:23:07.329Z,8.80
2022-10-29T06:25:35.404Z,9.50
2022-10-29T06:28:04.531Z,8.80
2022-10-29T06:30:34.151Z,10.50
2022-10-29T06:33:02.565Z,10.10
2022-10-29T06:35:32.424Z,9.00
2022-10-29T06:38:10.962Z,10.30
2022-10-29T06:40:40.789Z,9.90
2022-10-29T06:43:11.422Z,9.20
2022-10-29T06:45:39.835Z,9.40
2022-10-29T06:48:08.376Z,9.20
2022-10-29T06:50:37.820Z,9.20
2022-10-29T06:53:07.583Z,9.30
2022-10-29T06:55:36.006Z,9.30
2022-10-29T06:58:06.921Z,9.30
2022-10-29T07:00:36.426Z,9.40
2022-10-29T07:03:05.261Z,10.40
2022-10-29T07:05:35.849Z,9.20
2022-10-29T07:08:06.646Z,9.40
2022-10-29T07:10:47.136Z,9.50
2022-10-29T07:13:15.232Z,9.40
2022-10-29T07:15:43.424Z,10.90
2022-10-29T07:18:12.810Z,9.70
2022-10-29T07:20:42.814Z,10.40
2022-10-29T07:23:13.801Z,9.90
2022-10-29T07:25:42.638Z,10.50
2022-10-29T07:28:14.124Z,10.80
2022-10-29T07:30:42.934Z,10.90
2022-10-29T07:33:11.032Z,10.20
2022-10-29T07:35:39.519Z,10.80
2022-10-29T07:38:10.831Z,11.50
2022-10-29T07:40:47.062Z,10.50
2022-10-29T07:43:36.371Z,11.20
2022-10-29T07:46:04.484Z,10.50
2022-10-29T07:48:32.703Z,11.60
2022-10-29T07:51:02.162Z,10.80
2022-10-29T07:53:31.333Z,10.80
2022-10-29T07:56:01.239Z,10.90
2022-10-29T07:58:29.365Z,12.30
2022-10-29T08:01:00.279Z,11.10
2022-10-29T08:03:28.322Z,11.30
2022-10-29T08:05:58.129Z,11.30
2022-10-29T08:08:26.360Z,11.50
2022-10-29T08:10:54.899Z,11.50
2022-10-29T08:13:24.736Z,12.90
2022-10-29T08:15:56.143Z,11.60
2022-10-29T08:18:25.522Z,10.90
2022-10-29T08:20:54.606Z,11.70
2022-10-29T08:23:24.375Z,11.90
2022-10-29T08:25:52.612Z,12.80
2022-10-29T08:28:23.981Z,12.00
2022-10-29T08:30:54.925Z,12.10
2022-10-29T08:33:23.248Z,12.20
2022-10-29T08:35:52.687Z,12.20
2022-10-29T08:38:23.472Z,12.30
2022-10-29T08:41:04.035Z,12.40
2022-10-29T08:44:05.308Z,12.50
2022-10-29T08:46:45.050Z,12.70
2022-10-29T08:49:18.916Z,13.00
2022-10-29T08:51:57.665Z,11.20
2022-10-29T08:54:31.807Z,13.00
2022-10-29T08:57:07.079Z,13.20
2022-10-29T08:59:41.491Z,13.40
2022-10-29T09:02:18.363Z,13.50
2022-10-29T09:04:46.674Z,14.30
2022-10-29T09:07:38.983Z,14.30
2022-10-29T09:10:17.867Z,15.20
2022-10-29T09:13:08.081Z,15.70
2022-10-29T09:15:53.436Z,16.30
2022-10-29T09:18:38.693Z,16.60
2022-10-29T09:21:19.652Z,17.40
2022-10-29T09:24:03.749Z,18.20
2022-10-29T09:26:34.517Z,19.50
2022-10-29T09:29:15.907Z,20.20
2022-10-29T09:31:47.714Z,20.60
2022-10-29T09:34:28.627Z,20.40
2022-10-29T09:36:57.161Z,20.30
2022-10-29T09:39:33.891Z,20.00
2022-10-29T09:42:03.795Z,19.80
2022-10-29T09:44:39.009Z,19.20
2022-10-29T09:47:14.042Z,18.90
2022-10-29T09:50:05.209Z,18.20
2022-10-29T09:52:38.232Z,18.20
2022-10-29T09:55:08.516Z,18.00
2022-10-29T09:57:38.631Z,18.00
2022-10-29T10:00:17.423Z,17.90
2022-10-29T10:02:52.204Z,17.70
2022-10-29T10:05:26.288Z,18.00
2022-10-29T10:08:13.329Z,18.30
2022-10-29T10:10:52.777Z,18.60
2022-10-29T10:13:24.641Z,19.00
2022-10-29T10:15:57.076Z,19.40
2022-10-29T10:18:26.751Z,19.60
2022-10-29T10:21:06.503Z,20.10
2022-10-29T10:23:43.963Z,21.20
2022-10-29T10:26:45.067Z,22.40
2022-10-29T10:29:15.547Z,24.00
2022-10-29T10:31:44.923Z,24.50
2022-10-29T10:34:19.278Z,24.80
2022-10-29T10:36:52.646Z,25.20
2022-10-29T10:39:29.939Z,25.50
2022-10-29T10:42:00.336Z,26.00
2022-10-29T10:44:29.220Z,25.90
2022-10-29T10:47:00.325Z,25.80
2022-10-29T10:49:33.677Z,26.30
2022-10-29T10:52:05.672Z,26.50
2022-10-29T10:54:37.881Z,26.10
2022-10-29T10:57:20.226Z,25.60
2022-10-29T10:59:55.837Z,26.00
2022-10-29T11:02:30.828Z,26.50
2022-10-29T11:05:05.163Z,26.60
2022-10-29T11:07:41.545Z,26.60
2022-10-29T11:10:13.385Z,26.50
2022-10-29T11:12:44.924Z,26.30
2022-10-29T11:15:18.994Z,26.20
2022-10-29T11:17:54.376Z,26.20
2022-10-29T11:20:25.496Z,25.70
2022-10-29T11:23:05.652Z,25.50
2022-10-29T11:25:40.836Z,24.90
2022-10-29T11:28:20.002Z,24.40
2022-10-29T11:30:52.960Z,23.50
2022-10-29T11:33:25.363Z,23.10
2022-10-29T11:36:01.437Z,22.80
2022-10-29T11:38:38.892Z,22.50
2022-10-29T11:41:15.685Z,22.20
2022-10-29T11:43:43.667Z,22.10
2022-10-29T11:46:22.365Z,22.20
2022-10-29T11:48:59.911Z,22.40
2022-10-29T11:51:36.612Z,22.10
2022-10-29T11:54:19.549Z,22.00
2022-10-29T11:56:53.763Z,21.80
2022-10-29T11:59:33.339Z,21.90
2022-10-29T12:02:15.610Z,22.10
2022-10-29T12:04:49.437Z,22.20
2022-10-29T12:07:30.358Z,22.30
2022-10-29T12:10:17.727Z,22.40
2022-10-29T12:12:52.241Z,22.50
2022-10-29T12:15:27.070Z,22.60
2022-10-29T12:18:18.018Z,22.70
2022-10-29T12:20:51.845Z,22.70
2022-10-29T12:23:29.005Z,22.80
2022-10-29T12:26:07.183Z,23.40
2022-10-29T12:28:48.367Z,24.40
2022-10-29T12:31:32.027Z,25.60
2022-10-29T12:34:05.066Z,26.30
2022-10-29T12:36:39.566Z,26.90
2022-10-29T12:39:15.398Z,27.70
2022-10-29T12:41:50.092Z,27.50
2022-10-29T12:44:26.536Z,27.90
2022-10-29T12:47:04.093Z,28.10
2022-10-29T12:49:45.206Z,28.20
2022-10-29T12:52:20.056Z,28.30
2022-10-29T12:54:50.666Z,28.30
2022-10-29T12:57:31.941Z,28.40
2022-10-29T13:00:50.770Z,28.60
2022-10-29T13:03:52.147Z,28.20
2022-10-29T13:06:49.500Z,27.70
2022-10-29T13:09:19.424Z,27.40
2022-10-29T13:11:49.684Z,27.60
2022-10-29T13:14:25.102Z,27.90
2022-10-29T13:16:54.598Z,28.30
2022-10-29T13:19:34.858Z,27.90
2022-10-29T13:22:05.401Z,28.20
2022-10-29T13:24:33.670Z,27.90
2022-10-29T13:27:05.765Z,27.80
2022-10-29T13:29:47.576Z,27.70
2022-10-29T13:32:32.866Z,26.60
2022-10-29T13:35:02.470Z,26.20
2022-10-29T13:38:03.310Z,25.60
2022-10-29T13:41:06.040Z,24.80
2022-10-29T13:43:34.608Z,24.30
2022-10-29T13:46:27.544Z,24.00
2022-10-29T13:48:56.967Z,23.80
2022-10-29T13:51:31.781Z,23.60
2022-10-29T13:54:05.045Z,23.40
2022-10-29T13:56:39.076Z,23.10
2022-10-29T13:59:15.914Z,23.00
2022-10-29T14:02:00.246Z,22.90
2022-10-29T14:04:32.179Z,22.60
2022-10-29T14:07:01.952Z,22.70
2022-10-29T14:09:38.110Z,22.70
2022-10-29T14:12:10.526Z,22.70
2022-10-29T14:14:48.863Z,22.60
2022-10-29T14:17:19.354Z,22.30
2022-10-29T14:19:49.258Z,22.10
2022-10-29T14:22:23.741Z,22.10
2022-10-29T14:24:51.705Z,22.10
2022-10-29T14:27:19.668Z,22.20
2022-10-29T14:29:50.504Z,22.30
2022-10-29T14:32:22.690Z,22.30
2022-10-29T14:34:51.725Z,21.90
2022-10-29T14:37:32.790Z,21.70
2022-10-29T14:40:06.084Z,21.50
2022-10-29T14:42:38.099Z,21.40
2022-10-29T14:45:17.603Z,21.50
2022-10-29T14:47:51.024Z,21.50
2022-10-29T14:50:21.981Z,21.60
2022-10-29T14:52:53.912Z,21.60
2022-10-29T14:55:25.066Z,21.50
2022-10-29T14:58:02.527Z,21.30
2022-10-29T15:00:32.624Z,21.10
2022-10-29T15:03:03.096Z,20.80
2022-10-29T15:05:34.889Z,20.50
2022-10-29T15:08:07.694Z,20.30
2022-10-29T15:10:46.957Z,20.00
2022-10-29T15:13:24.136Z,19.70
2022-10-29T15:15:56.315Z,19.50
2022-10-29T15:18:27.313Z,19.30
2022-10-29T15:20:56.623Z,19.00
2022-10-29T15:23:27.753Z,18.80
2022-10-29T15:26:02.013Z,18.60
2022-10-29T15:28:32.027Z,18.40
2022-10-29T15:31:03.201Z,18.30
2022-10-29T15:33:33.350Z,18.10
2022-10-29T15:36:04.117Z,18.00
2022-10-29T15:39:20.958Z,17.80
2022-10-29T15:41:50.669Z,17.70
2022-10-29T15:44:34.459Z,17.50
2022-10-29T15:47:03.645Z,17.40
2022-10-29T15:49:33.264Z,17.30
2022-10-29T15:52:01.684Z,17.10
2022-10-29T15:54:30.282Z,17.00
2022-10-29T15:56:58.234Z,16.90
2022-10-29T15:59:27.432Z,16.90
2022-10-29T16:01:55.464Z,16.80
2022-10-29T16:04:23.527Z,16.80
2022-10-29T16:06:52.996Z,16.70
2022-10-29T16:09:22.048Z,16.70
2022-10-29T16:11:50.796Z,16.60
2022-10-29T16:14:18.805Z,16.50
2022-10-29T16:16:46.976Z,16.50
2022-10-29T16:19:15.018Z,16.30
2022-10-29T16:21:43.086Z,16.20
2022-10-29T16:24:15.797Z,16.10
2022-10-29T16:26:43.854Z,16.10
2022-10-29T16:29:11.987Z,16.10
2022-10-29T16:31:39.963Z,15.90
2022-10-29T16:34:13.513Z,15.80
2022-10-29T16:36:41.654Z,15.70
2022-10-29T16:39:09.697Z,15.60
2022-10-29T16:41:39.111Z,15.50
2022-10-29T16:44:07.021Z,15.40
2022-10-29T16:46:34.984Z,15.40
2022-10-29T16:49:02.923Z,15.40
2022-10-29T16:51:31.103Z,15.30
2022-10-29T16:53:59.214Z,15.20
2022-10-29T16:56:27.207Z,15.10
2022-10-29T16:59:02.102Z,15.00
2022-10-29T17:01:30.342Z,15.00
2022-10-29T17:03:58.435Z,14.90
2022-10-29T17:06:26.418Z,14.90
2022-10-29T17:08:54.454Z,14.80
2022-10-29T17:11:22.377Z,14.70
2022-10-29T17:13:50.391Z,14.70
2022-10-29T17:16:19.814Z,14.70
2022-10-29T17:18:50.726Z,14.70
2022-10-29T17:21:19.225Z,14.50
2022-10-29T17:23:47.179Z,14.40
2022-10-29T17:26:15.351Z,14.30
2022-10-29T17:28:43.516Z,14.20
2022-10-29T17:31:12.217Z,14.10
2022-10-29T17:33:41.812Z,14.00
2022-10-29T17:36:13.732Z,13.80
2022-10-29T17:38:42.024Z,13.80
2022-10-29T17:41:10.090Z,14.50
2022-10-29T17:43:38.226Z,13.70
2022-10-29T17:46:06.524Z,13.60
2022-10-29T17:48:34.538Z,13.60
2022-10-29T17:51:05.071Z,13.70
2022-10-29T17:53:33.393Z,13.60
2022-10-29T17:56:02.220Z,13.60
2022-10-29T17:58:31.009Z,13.60
2022-10-29T18:01:04.669Z,13.50
2022-10-29T18:03:32.833Z,13.50
2022-10-29T18:06:01.931Z,13.50
2022-10-29T18:08:31.973Z,14.50
2022-10-29T18:11:04.157Z,13.40
2022-10-29T18:13:33.704Z,13.30
2022-10-29T18:16:02.802Z,13.30
2022-10-29T18:18:38.276Z,13.30
2022-10-29T18:21:18.736Z,13.20
2022-10-29T18:23:48.594Z,13.10
2022-10-29T18:26:23.225Z,13.10
2022-10-29T18:28:51.740Z,13.00
2022-10-29T18:31:20.051Z,13.00
2022-10-29T18:33:48.102Z,13.20
2022-10-29T18:36:16.088Z,12.90
2022-10-29T18:38:44.567Z,13.10
2022-10-29T18:41:13.957Z,12.80
2022-10-29T18:43:42.015Z,12.80
2022-10-29T18:46:11.396Z,12.80
2022-10-29T18:48:40.564Z,12.90
2022-10-29T18:51:10.599Z,13.60
2022-10-29T18:53:39.662Z,12.60
2022-10-29T18:56:11.360Z,12.60
2022-10-29T18:58:41.202Z,12.50
2022-10-29T19:01:11.352Z,12.50
2022-10-29T19:03:40.089Z,12.40
2022-10-29T19:06:10.918Z,12.40
2022-10-29T19:08:40.678Z,12.40
2022-10-29T19:11:10.402Z,12.30
2022-10-29T19:13:38.547Z,12.30
2022-10-29T19:16:10.177Z,12.30
2022-10-29T19:18:39.598Z,12.20
2022-10-29T19:21:11.408Z,12.20
2022-10-29T19:23:40.338Z,12.20
2022-10-29T19:26:10.512Z,12.30
2022-10-29T19:28:39.334Z,12.20
2022-10-29T19:31:10.568Z,13.60
2022-10-29T19:33:39.318Z,12.10
2022-10-29T19:36:10.003Z,12.20
2022-10-29T19:38:38.228Z,12.20
2022-10-29T19:41:06.542Z,12.30
2022-10-29T19:43:35.287Z,12.20
2022-10-29T19:46:09.333Z,12.20
2022-10-29T19:48:37.822Z,12.20
2022-10-29T19:51:06.440Z,13.10
2022-10-29T19:53:34.592Z,12.20
2022-10-29T19:56:02.709Z,12.20
2022-10-29T19:58:31.332Z,12.10
2022-10-29T20:01:05.412Z,12.10
2022-10-29T20:03:35.288Z,12.10
2022-10-29T20:06:03.220Z,12.00
2022-10-29T20:08:31.321Z,12.10
2022-10-29T20:11:01.587Z,12.10
2022-10-29T20:13:29.710Z,12.10
2022-10-29T20:15:57.881Z,12.10
2022-10-29T20:18:25.880Z,12.10
2022-10-29T20:20:58.447Z,12.10
2022-10-29T20:23:26.599Z,12.10
2022-10-29T20:25:54.612Z,12.30
2022-10-29T20:28:22.595Z,12.50
2022-10-29T20:30:50.880Z,12.40
2022-10-29T20:33:18.796Z,12.20
2022-10-29T20:35:46.809Z,12.20
2022-10-29T20:38:16.219Z,12.20
2022-10-29T20:40:44.166Z,13.20
2022-10-29T20:43:12.285Z,12.20
2022-10-29T20:45:40.415Z,12.20
2022-10-29T20:48:08.573Z,12.20
2022-10-29T20:50:36.639Z,12.20
2022-10-29T20:53:04.668Z,12.50
2022-10-29T20:55:35.185Z,12.20
2022-10-29T20:58:03.451Z,12.20
2022-10-29T21:00:31.414Z,13.00
2022-10-29T21:02:59.449Z,12.20
2022-10-29T21:05:27.462Z,12.20
2022-10-29T21:07:55.926Z,12.10
2022-10-29T21:10:24.137Z,12.20
2022-10-29T21:12:53.699Z,12.40
2022-10-29T21:15:21.769Z,12.30
2022-10-29T21:17:49.798Z,12.30
2022-10-29T21:20:17.841Z,12.60
2022-10-29T21:22:45.995Z,12.30
2022-10-29T21:25:13.928Z,12.30
2022-10-29T21:27:41.924Z,12.40
2022-10-29T21:30:13.571Z,12.40
2022-10-29T21:32:41.549Z,12.40
2022-10-29T21:35:10.478Z,12.50
2022-10-29T21:37:38.403Z,12.40
2022-10-29T21:40:07.229Z,13.00
2022-10-29T21:42:35.371Z,12.40
2022-10-29T21:45:03.411Z,12.40
2022-10-29T21:47:32.678Z,12.40
2022-10-29T21:50:00.831Z,12.40
2022-10-29T21:52:28.985Z,12.40
2022-10-29T21:54:57.097Z,13.00
2022-10-29T21:57:25.226Z,12.40
2022-10-29T21:59:53.394Z,12.40
2022-10-29T22:02:21.378Z,13.10
2022-10-29T22:04:50.893Z,12.30
2022-10-29T22:07:19.021Z,13.20
2022-10-29T22:09:47.023Z,12.30
2022-10-29T22:12:15.074Z,12.20
2022-10-29T22:14:43.085Z,12.20
2022-10-29T22:17:11.066Z,12.20
2022-10-29T22:19:39.069Z,12.50
2022-10-29T22:22:08.489Z,13.00
2022-10-29T22:24:36.507Z,12.20
2022-10-29T22:27:04.943Z,12.10
2022-10-29T22:29:33.170Z,12.10
2022-10-29T22:32:01.178Z,12.20
2022-10-29T22:34:29.083Z,12.10
2022-10-29T22:36:57.030Z,12.00
2022-10-29T22:39:28.042Z,12.00
2022-10-29T22:41:56.127Z,12.00
2022-10-29T22:44:24.253Z,12.00
2022-10-29T22:46:52.282Z,11.90
2022-10-29T22:49:20.313Z,11.80
2022-10-29T22:51:48.443Z,11.80
2022-10-29T22:54:16.406Z,11.80
2022-10-29T22:56:45.859Z,11.70
2022-10-29T22:59:13.827Z,11.70
2022-10-29T23:01:44.305Z,12.10
2022-10-29T23:04:13.894Z,11.70
2022-10-29T23:06:41.851Z,12.00
2022-10-29T23:09:10.002Z,12.30
2022-10-29T23:11:39.331Z,11.60
2022-10-29T23:14:08.683Z,11.60
2022-10-29T23:16:37.524Z,12.10
2022-10-29T23:19:06.966Z,11.60
2022-10-29T23:21:35.101Z,11.60
2022-10-29T23:24:03.379Z,11.50
2022-10-29T23:26:31.307Z,11.50
2022-10-29T23:28:59.250Z,11.50
2022-10-29T23:31:29.899Z,11.40
2022-10-29T23:33:59.084Z,11.90
2022-10-29T23:36:28.585Z,11.40
2022-10-29T23:38:57.404Z,11.40
2022-10-29T23:41:25.373Z,11.40
2022-10-29T23:43:53.451Z,11.30
2022-10-29T23:46:21.555Z,11.30
2022-10-29T23:48:51.174Z,11.30
2022-10-29T23:51:19.678Z,12.00
2022-10-29T23:53:50.353Z,11.30
2022-10-29T23:56:21.205Z,11.40
2022-10-29T23:58:49.518Z,11.30
